Westford, VT

00:32 EDT le 28 Mars 2015 (GMT -0400)
Morrisville Stowe State | | Change Station
CLOSE
Current Station
Aéroport
Location: Morrisville,
Altitude: 732 ft
Stations météo à proximité

Alt. 732 ft 44.53 °N, 72.61 °W | Updated 38 minutes ago

Couvert
Couvert
30 ° F
Paraît 22 ° F
N
8
Vent Variable Vent de Nord

Aujourd'hui
Haut(e) -- | Bas -- ° F
--% Risque de précip.
Hier
Haut(e) -- | Bas -- ° F
Precip. -- pouce
6:40 AM 7:14 PM
Premier quartier, 59% visible
Pression 29.88 pouce
Visibilité 10.0 Miles terrestres
Nuages Couvert 8000 ft
Refroidissement éolien 22 ° F
Point de rosée 22 ° F
Humidité 72%
Précipitations 0.01 pouce
Profondeur de la couche neigeuse Non disponible.
UV 0 sur 12
Pollen .50 sur 12
Qualité de l'air Non disponible.
Flu Activity Non disponible.
METAR KMVL 280354Z AUTO 35007KT 10SM OVC080 M01/M06 A2986 RMK AO2 SLP119 T10111056 TSNO

More Conditions Fewer Conditions

Pression 29.88 pouce
Visibilité 10.0 Miles terrestres
Nuages Couvert 8000 ft
Refroidissement éolien 22 ° F
Point de rosée 22 ° F
Humidité 72%
Précipitations 0.01 pouce
Profondeur de la couche neigeuse Non disponible.
UV 0 sur 12
Pollen .50 sur 12
Qualité de l'air Non disponible.
Flu Activity Non disponible.
METAR KMVL 280354Z AUTO 35007KT 10SM OVC080 M01/M06 A2986 RMK AO2 SLP119 T10111056 TSNO

More Conditions Fewer Conditions

10-Day Weather Forecast

Almanac

Astronomie

Mar. 28, 2015 Lever Coucher
Temps réel
Crépuscule civil
Crépuscule nautique
Crépuscule astronomique
Lune
Durée de lumière visible
Longueur du jour
Tomorrow will be .
, % of the Moon is Illuminated

Extrêmes aujourd'hui

State Highs State Lows

Community

WunderPhotos

Upload Photos

1,808,928 Photos téléchargées !

WunderBlogs® & News

Nearby

Qualité de l'air

  Qualité de l'air Indice de la qualité de l'air Polluant
Not available.

Épaisseur de neige

Station Depth Altitude

Activité sismique

Ville Distance Mag. Time & Date
Minimum magnitude displayed is 2.5.

Températures des eaux côtières

Lieu Température

Stations

Stations météo à proximité

Emplacement de la station Température Refroidissement éolien Point de rosée Humidité Vent Precip. Alt. Mise à jour Type